Time;durP1;ratioP1;P1;durP2;ratioP2;P2;SDS_P1;SDS_P2;PMS_P1;PMS_P2;Temp;Humidity;BMP_temperature;BMP_pressure;BME280_temperature;BME280_humidity;BME280_pressure;Samples;Min_cycle;Max_cycle;Signal;HPM_P1;HPM_P2
2021/10/03 00:00:59;;;;;;;5.43;4.87;;;14.70;67.90;;;13.68;75.58;97275.63;5029442;28;20465;-72
2021/10/03 00:03:27;;;;;;;7.40;6.60;;;14.70;67.90;;;13.65;75.80;97276.16;5029289;28;20458;-69
2021/10/03 00:05:56;;;;;;;6.57;5.90;;;14.70;68.20;;;13.68;76.05;97272.91;5027492;28;20486;-71
2021/10/03 00:08:24;;;;;;;7.50;6.80;;;14.70;68.20;;;13.66;76.61;97269.66;5024701;28;20462;-71
2021/10/03 00:10:53;;;;;;;8.57;6.97;;;14.70;68.40;;;13.63;76.28;97275.59;5026742;28;20514;-71
2021/10/03 00:13:23;;;;;;;5.93;5.40;;;14.70;68.50;;;13.64;75.96;97277.22;5028071;28;20459;-72
2021/10/03 00:15:51;;;;;;;7.00;6.30;;;14.60;68.40;;;13.55;76.63;97280.38;5025220;28;20471;-69
2021/10/03 00:18:18;;;;;;;5.50;5.10;;;14.60;68.60;;;13.55;76.67;97277.66;5026621;28;20966;-69
2021/10/03 00:20:46;;;;;;;6.93;6.23;;;14.50;68.70;;;13.56;77.28;97273.06;5027694;28;20541;-68
2021/10/03 00:23:13;;;;;;;7.40;6.70;;;14.50;68.90;;;13.37;77.25;97261.66;5026749;28;20989;-69
2021/10/03 00:25:41;;;;;;;8.17;7.47;;;14.50;69.20;;;13.39;77.87;97273.91;5024643;28;20497;-69
2021/10/03 00:28:09;;;;;;;8.30;7.50;;;14.40;69.50;;;13.40;77.93;97272.84;5029081;28;20466;-69
2021/10/03 00:30:39;;;;;;;6.77;6.17;;;14.40;69.70;;;13.41;77.53;97268.22;5036303;28;20480;-68
2021/10/03 00:33:06;;;;;;;6.17;5.57;;;14.40;69.60;;;13.36;78.25;97268.16;5025678;28;21099;-68
2021/10/03 00:35:34;;;;;;;5.80;5.30;;;14.40;69.80;;;13.29;78.29;97271.91;5032121;28;20972;-69
2021/10/03 00:38:03;;;;;;;7.80;7.00;;;14.30;70.00;;;13.22;79.14;97265.81;5028811;28;20950;-68
2021/10/03 00:40:30;;;;;;;10.27;7.97;;;14.30;70.40;;;13.22;79.30;97254.16;5029732;28;20473;-69
2021/10/03 00:43:00;;;;;;;9.70;6.80;;;14.20;70.80;;;13.15;79.32;97255.16;5029602;28;20997;-68
2021/10/03 00:45:28;;;;;;;7.20;6.57;;;14.20;70.80;;;13.18;79.73;97251.13;5027967;28;20470;-69
2021/10/03 00:47:57;;;;;;;8.17;6.50;;;14.20;71.10;;;13.16;79.50;97242.44;5028382;28;20557;-69
2021/10/03 00:50:25;;;;;;;6.50;5.90;;;14.10;71.30;;;13.06;79.67;97239.56;5026052;28;20471;-67
2021/10/03 00:52:52;;;;;;;6.50;6.00;;;14.10;71.40;;;13.09;80.07;97239.06;5027169;28;20474;-68
2021/10/03 00:55:20;;;;;;;6.87;5.90;;;14.10;71.70;;;12.97;80.54;97229.19;5026952;28;20557;-68
2021/10/03 00:57:50;;;;;;;8.23;7.53;;;14.00;72.10;;;13.00;81.07;97238.69;5025133;28;20466;-68
2021/10/03 01:00:19;;;;;;;7.20;6.50;;;14.00;72.50;;;12.82;80.99;97199.16;5028672;28;20473;-68
2021/10/03 01:02:48;;;;;;;8.97;8.03;;;14.00;72.80;;;13.00;81.48;97219.69;5042208;28;20455;-68
2021/10/03 01:05:17;;;;;;;7.17;6.53;;;14.00;73.20;;;13.00;80.89;97214.28;5043168;28;21209;-70
2021/10/03 01:07:44;;;;;;;7.03;6.23;;;14.00;73.10;;;13.00;81.05;97219.69;5027332;28;20456;-70
2021/10/03 01:10:14;;;;;;;8.53;7.20;;;14.00;73.20;;;12.93;81.85;97211.75;5028420;28;20481;-70
2021/10/03 01:12:41;;;;;;;7.93;7.13;;;14.00;73.80;;;13.02;81.40;97209.41;5025762;28;20467;-70
2021/10/03 01:15:10;;;;;;;7.13;6.53;;;14.00;73.70;;;13.00;81.19;97219.69;5043234;28;20473;-70
2021/10/03 01:17:38;;;;;;;9.13;8.13;;;14.00;73.80;;;12.96;81.66;97208.53;5024817;28;20463;-70
2021/10/03 01:20:07;;;;;;;8.70;7.90;;;14.00;74.00;;;12.94;81.98;97213.38;5026242;28;20726;-70
2021/10/03 01:22:36;;;;;;;7.60;6.90;;;14.00;74.30;;;12.98;81.88;97216.41;5027116;28;20470;-70
2021/10/03 01:25:06;;;;;;;7.83;7.13;;;13.90;74.50;;;12.91;81.87;97211.19;5025309;28;20483;-70
2021/10/03 01:27:35;;;;;;;8.00;7.10;;;14.00;74.50;;;12.86;82.22;97216.53;5023526;28;20558;-68
2021/10/03 01:30:03;;;;;;;8.40;7.60;;;13.90;74.80;;;12.86;82.38;97214.63;5023169;28;20462;-70
2021/10/03 01:32:30;;;;;;;8.53;7.63;;;13.90;75.10;;;12.88;82.40;97209.78;5024812;28;20463;-69
2021/10/03 01:34:57;;;;;;;7.90;7.20;;;13.90;75.30;;;12.87;82.31;97210.03;5023932;28;20486;-70
2021/10/03 01:37:25;;;;;;;8.77;7.93;;;13.90;75.40;;;12.82;82.77;97213.50;5026068;28;20467;-70
2021/10/03 01:39:53;;;;;;;9.90;8.20;;;13.90;75.70;;;12.77;83.41;97204.47;5027017;28;20451;-69
2021/10/03 01:42:20;;;;;;;9.57;7.30;;;13.80;76.20;;;12.79;83.21;97208.59;5022569;28;21019;-70
2021/10/03 01:44:47;;;;;;;9.43;8.43;;;13.80;76.50;;;12.82;83.08;97212.69;5025324;28;20598;-70
2021/10/03 01:47:16;;;;;;;11.70;7.77;;;13.80;76.50;;;12.83;82.97;97211.63;5023946;28;20546;-70
2021/10/03 01:49:43;;;;;;;8.63;7.80;;;13.80;76.60;;;12.72;83.53;97203.34;5024859;28;20489;-70
2021/10/03 01:52:09;;;;;;;9.77;8.37;;;13.70;76.90;;;12.78;83.41;97212.38;5026644;28;20466;-69
2021/10/03 01:54:36;;;;;;;9.47;8.20;;;13.80;77.20;;;12.74;83.53;97212.03;5027093;28;20505;-69
2021/10/03 01:57:05;;;;;;;9.03;8.13;;;13.80;77.40;;;12.74;83.67;97198.50;5024738;28;20554;-69
2021/10/03 01:59:32;;;;;;;8.50;7.80;;;13.70;77.70;;;12.75;83.95;97193.91;5025507;28;20562;-69
2021/10/03 02:02:00;;;;;;;8.27;7.53;;;13.70;77.80;;;12.69;83.85;97197.59;5024573;28;21001;-68
2021/10/03 02:04:28;;;;;;;8.30;7.50;;;13.70;78.10;;;12.68;83.97;97195.94;5027480;28;20473;-69
2021/10/03 02:06:58;;;;;;;8.73;8.00;;;13.70;78.00;;;12.69;83.94;97190.28;5026915;28;20476;-69
2021/10/03 02:09:28;;;;;;;10.07;9.03;;;13.70;78.20;;;12.67;84.10;97194.31;5017238;28;20470;-69
2021/10/03 02:11:59;;;;;;;10.43;8.60;;;13.70;78.30;;;12.73;84.04;97202.28;5021638;28;20490;-69
2021/10/03 02:14:31;;;;;;;8.67;7.90;;;13.70;78.60;;;12.85;83.47;97198.63;5021287;28;20651;-69
2021/10/03 02:17:00;;;;;;;9.67;8.77;;;13.80;78.50;;;12.75;83.57;97197.41;5040972;28;20458;-69
2021/10/03 02:19:29;;;;;;;9.70;8.73;;;13.80;78.30;;;12.76;83.61;97182.00;5023933;28;20523;-69
2021/10/03 02:21:57;;;;;;;10.63;9.10;;;13.80;78.40;;;12.71;84.04;97187.31;5027835;28;20450;-70
2021/10/03 02:24:24;;;;;;;9.83;9.00;;;13.70;78.60;;;12.70;84.07;97194.66;5028793;28;20560;-70
2021/10/03 02:26:51;;;;;;;10.57;9.47;;;13.70;78.70;;;12.67;84.09;97183.47;5028629;28;20458;-70
2021/10/03 02:29:19;;;;;;;10.13;9.13;;;13.70;78.80;;;12.66;84.17;97177.25;5027902;28;20470;-69
2021/10/03 02:31:47;;;;;;;9.80;8.90;;;13.70;78.90;;;12.72;83.85;97187.06;5030679;28;20560;-70
2021/10/03 02:34:14;;;;;;;9.73;8.63;;;13.70;79.00;;;12.60;84.59;97191.78;5028190;28;20509;-70
2021/10/03 02:36:41;;;;;;;10.93;9.83;;;13.60;79.10;;;12.58;84.81;97174.94;5028554;28;20492;-70
2021/10/03 02:39:08;;;;;;;11.43;9.10;;;13.60;79.60;;;12.53;84.55;97177.59;5030119;28;20462;-70
2021/10/03 02:41:35;;;;;;;11.80;9.13;;;13.60;79.50;;;12.54;84.75;97180.03;5043839;28;20802;-70
2021/10/03 02:44:06;;;;;;;10.70;9.57;;;13.60;79.60;;;12.50;84.73;97183.50;5024900;28;20470;-69
2021/10/03 02:46:33;;;;;;;10.40;9.33;;;13.50;79.80;;;12.47;84.94;97182.13;5025157;28;20448;-70
2021/10/03 02:49:02;;;;;;;11.30;10.10;;;13.50;80.00;;;12.45;85.49;97182.34;5019782;28;20557;-70
2021/10/03 02:51:31;;;;;;;9.60;8.53;;;13.50;80.40;;;12.53;84.65;97172.19;5029075;28;20608;-70
2021/10/03 02:53:59;;;;;;;10.30;9.30;;;13.50;80.00;;;12.55;84.45;97170.84;5030039;28;20469;-70
2021/10/03 02:56:30;;;;;;;11.70;9.90;;;13.60;79.90;;;12.53;84.23;97169.47;5028833;28;20474;-70
2021/10/03 02:58:58;;;;;;;10.33;9.33;;;13.60;79.70;;;12.54;84.26;97173.81;5027087;28;21038;-70
2021/10/03 03:01:25;;;;;;;9.87;8.60;;;13.50;79.70;;;12.45;84.75;97160.69;5025262;28;20974;-70
2021/10/03 03:03:53;;;;;;;10.73;9.63;;;13.50;80.00;;;12.43;84.77;97172.81;5025473;28;20458;-69
2021/10/03 03:06:21;;;;;;;10.93;9.83;;;13.50;79.90;;;12.49;84.49;97176.44;5025696;28;20484;-70
2021/10/03 03:08:48;;;;;;;9.40;8.50;;;13.50;79.80;;;12.52;83.92;97179.47;5030307;28;20480;-69
2021/10/03 03:11:16;;;;;;;10.00;8.80;;;13.50;79.80;;;12.58;83.70;97174.94;5031952;28;20839;-69
2021/10/03 03:13:43;;;;;;;10.30;9.13;;;13.60;79.70;;;12.59;83.78;97172.00;5028512;28;20508;-69
2021/10/03 03:16:10;;;;;;;10.43;9.43;;;13.60;79.50;;;12.67;83.50;97173.47;5025675;28;20832;-69
2021/10/03 03:18:39;;;;;;;10.67;9.57;;;13.70;79.30;;;12.67;83.34;97173.47;5028320;28;20454;-69
2021/10/03 03:21:06;;;;;;;10.80;9.70;;;13.70;79.00;;;12.75;82.83;97173.03;5027498;28;20504;-68
2021/10/03 03:23:34;;;;;;;10.40;9.40;;;13.80;78.70;;;12.74;82.68;97168.66;5029032;28;20549;-69
2021/10/03 03:26:01;;;;;;;10.80;9.77;;;13.80;78.50;;;12.74;83.19;97165.16;5030151;28;20482;-68
2021/10/03 03:28:28;;;;;;;8.80;8.00;;;13.80;78.70;;;12.81;82.32;97167.66;5027625;28;20458;-68
2021/10/03 03:30:55;;;;;;;9.60;8.60;;;13.80;78.30;;;12.73;82.27;97167.03;5022055;28;20478;-69
2021/10/03 03:33:22;;;;;;;10.67;9.60;;;13.80;78.10;;;12.72;82.44;97157.25;5029176;28;20458;-68
2021/10/03 03:35:49;;;;;;;10.43;9.43;;;13.80;78.00;;;12.78;82.26;97154.63;5029294;28;20508;-69
2021/10/03 03:38:16;;;;;;;10.43;9.33;;;13.80;78.10;;;12.78;82.13;97160.88;5031018;28;21023;-68
2021/10/03 03:40:44;;;;;;;10.30;8.93;;;13.80;78.00;;;12.79;82.01;97164.38;5023430;28;20545;-69
2021/10/03 03:43:11;;;;;;;10.97;9.70;;;13.80;77.80;;;12.86;81.96;97171.25;5030102;28;20531;-69
2021/10/03 03:45:38;;;;;;;10.80;9.70;;;13.80;77.80;;;12.86;82.21;97154.19;5025345;28;21018;-68
2021/10/03 03:48:05;;;;;;;13.20;10.10;;;13.90;77.80;;;12.81;82.20;97143.25;5026700;28;20458;-68
2021/10/03 03:50:33;;;;;;;11.07;9.03;;;13.90;77.80;;;12.86;81.77;97149.56;5025073;28;20459;-68
2021/10/03 03:53:01;;;;;;;9.50;8.50;;;13.90;77.50;;;12.91;81.27;97151.53;5027379;28;20463;-69
2021/10/03 03:55:28;;;;;;;9.50;8.50;;;13.90;77.10;;;12.94;80.75;97156.44;5028126;28;20963;-68
2021/10/03 03:57:57;;;;;;;11.20;9.07;;;14.00;76.80;;;12.97;80.61;97150.53;5028735;28;20471;-69
2021/10/03 04:00:23;;;;;;;10.33;9.17;;;14.00;76.70;;;12.94;80.94;97145.59;5029663;28;20460;-69
2021/10/03 04:02:50;;;;;;;10.17;9.27;;;14.00;76.90;;;12.80;81.38;97123.47;5022738;28;20768;-69
2021/10/03 04:05:17;;;;;;;10.53;9.53;;;14.00;76.90;;;12.94;80.88;97128.53;5025654;28;20512;-69
2021/10/03 04:07:44;;;;;;;10.27;9.37;;;14.00;76.50;;;12.93;80.69;97116.84;5025316;28;20462;-69
2021/10/03 04:10:12;;;;;;;10.50;8.37;;;14.00;76.50;;;12.92;81.23;97101.66;5029213;28;20934;-69
2021/10/03 04:12:39;;;;;;;9.70;8.70;;;14.00;76.80;;;12.99;80.40;97098.75;5022068;28;21133;-69
2021/10/03 04:15:09;;;;;;;12.90;9.90;;;14.00;76.30;;;13.01;80.25;97129.97;5024614;28;20561;-69
2021/10/03 04:17:37;;;;;;;10.03;8.90;;;14.00;76.10;;;12.94;80.76;97134.75;5027290;28;20458;-69
2021/10/03 04:20:06;;;;;;;10.90;9.10;;;14.00;76.10;;;13.01;79.63;97146.25;5024766;28;21037;-70
2021/10/03 04:22:34;;;;;;;10.77;9.43;;;14.00;75.60;;;13.03;79.37;97149.53;5028934;28;20557;-69
2021/10/03 04:25:01;;;;;;;10.80;9.73;;;14.00;75.50;;;13.08;78.97;97140.63;5026863;28;20486;-69
2021/10/03 04:27:28;;;;;;;10.77;9.77;;;14.10;75.30;;;13.03;78.85;97138.69;5025914;28;20656;-69
2021/10/03 04:29:55;;;;;;;11.37;9.70;;;14.10;74.90;;;13.13;78.51;97143.41;5026920;28;21204;-69
2021/10/03 04:32:23;;;;;;;10.07;9.07;;;14.10;74.80;;;13.14;78.20;97144.22;5027418;28;20472;-70
2021/10/03 04:34:50;;;;;;;10.73;9.83;;;14.10;74.50;;;13.00;78.87;97141.91;5043623;28;20481;-68
2021/10/03 04:37:17;;;;;;;10.60;9.53;;;14.00;74.50;;;13.12;78.52;97140.97;5025473;28;20469;-69
2021/10/03 04:39:44;;;;;;;9.60;8.67;;;14.10;74.40;;;13.07;78.51;97132.75;5024577;28;21579;-68
2021/10/03 04:42:11;;;;;;;9.07;8.27;;;14.10;74.30;;;13.09;78.57;97130.59;5023349;28;20459;-68
2021/10/03 04:44:38;;;;;;;10.10;9.03;;;14.10;74.30;;;13.14;78.00;97136.09;5023896;28;20517;-68
2021/10/03 04:47:05;;;;;;;10.00;9.10;;;14.10;74.10;;;13.16;77.91;97133.94;5024953;28;20454;-69
2021/10/03 04:49:34;;;;;;;10.13;9.23;;;14.10;73.90;;;13.15;78.01;97135.03;5020060;28;20464;-69
2021/10/03 04:52:01;;;;;;;10.13;9.10;;;14.10;74.10;;;13.15;77.55;97122.25;5028096;28;20486;-68
2021/10/03 04:54:28;;;;;;;10.23;9.33;;;14.10;73.50;;;13.10;77.94;97124.09;5024375;28;20474;-68
2021/10/03 04:56:55;;;;;;;11.00;10.00;;;14.10;73.60;;;13.06;77.71;97122.97;5023592;28;20454;-69
2021/10/03 04:59:22;;;;;;;10.10;9.13;;;14.10;73.40;;;13.08;77.09;97118.94;5025804;28;20450;-68
2021/10/03 05:01:48;;;;;;;9.77;8.80;;;14.10;73.20;;;13.18;77.13;97118.25;5021371;28;20485;-68
2021/10/03 05:04:15;;;;;;;9.80;8.90;;;14.10;73.00;;;13.15;77.15;97124.19;5023953;28;20506;-70
2021/10/03 05:06:44;;;;;;;10.10;9.10;;;14.10;72.90;;;13.27;76.63;97122.16;5023524;28;20453;-69
2021/10/03 05:09:11;;;;;;;10.00;8.53;;;14.20;72.80;;;13.38;76.05;97122.22;5024507;28;20965;-70
2021/10/03 05:11:38;;;;;;;11.63;9.20;;;14.30;72.50;;;13.42;76.38;97117.91;5024020;28;20850;-70
2021/10/03 05:14:06;;;;;;;10.30;9.30;;;14.30;72.40;;;13.49;75.98;97118.59;5021405;28;20991;-70
2021/10/03 05:16:35;;;;;;;10.07;9.17;;;14.40;72.30;;;13.39;75.22;97118.44;5022127;28;20442;-70
2021/10/03 05:19:02;;;;;;;10.50;9.50;;;14.40;71.60;;;13.35;75.38;97115.44;5023280;28;20450;-74
2021/10/03 05:21:29;;;;;;;13.10;9.30;;;14.40;71.70;;;13.31;76.01;97127.84;5018419;28;20447;-70
2021/10/03 05:23:58;;;;;;;10.10;9.10;;;14.30;71.70;;;13.26;75.49;97120.47;5025844;28;20458;-69
2021/10/03 05:26:25;;;;;;;9.33;8.53;;;14.30;71.50;;;13.19;75.75;97119.88;5024367;28;20477;-70
2021/10/03 05:28:52;;;;;;;10.60;9.50;;;14.20;71.50;;;13.23;75.67;97118.28;5022197;28;20462;-68
2021/10/03 05:31:19;;;;;;;10.50;9.50;;;14.20;71.50;;;13.15;75.95;97114.13;5019053;28;20600;-70
2021/10/03 05:33:46;;;;;;;9.60;8.70;;;14.20;71.50;;;13.12;75.84;97119.25;5022083;28;20557;-67
2021/10/03 05:36:14;;;;;;;10.30;8.80;;;14.10;71.30;;;13.10;75.72;97115.97;5023145;28;20457;-68
2021/10/03 05:38:40;;;;;;;10.10;9.20;;;14.10;71.30;;;13.19;75.44;97117.16;5019826;28;20447;-67
2021/10/03 05:41:09;;;;;;;9.37;8.47;;;14.20;71.00;;;13.20;76.07;97110.66;5019987;28;20466;-69
2021/10/03 05:43:37;;;;;;;10.07;9.17;;;14.20;71.40;;;13.24;75.08;97119.13;5018882;28;20492;-78
2021/10/03 05:46:05;;;;;;;10.30;9.33;;;14.20;70.70;;;13.16;75.30;97125.81;5023533;28;20573;-68
2021/10/03 05:48:32;;;;;;;8.83;7.87;;;14.20;70.70;;;13.14;75.16;97114.41;5022116;28;20466;-68
2021/10/03 05:50:59;;;;;;;10.47;9.40;;;14.20;70.60;;;13.18;75.06;97110.09;5019057;28;20469;-68
2021/10/03 05:53:26;;;;;;;11.27;10.17;;;14.20;70.60;;;13.02;75.58;97115.34;5026872;28;20476;-69
2021/10/03 05:55:53;;;;;;;9.60;8.30;;;14.10;70.50;;;13.17;75.27;97111.97;5019861;28;20475;-68
2021/10/03 05:58:21;;;;;;;10.00;9.03;;;14.10;70.50;;;13.29;74.63;97120.00;5020012;28;20462;-68
2021/10/03 06:00:48;;;;;;;12.60;10.17;;;14.20;70.40;;;13.28;74.11;97117.53;5022241;28;20458;-68
2021/10/03 06:03:15;;;;;;;9.97;8.97;;;14.30;70.00;;;13.25;74.12;97116.13;5023720;28;20545;-70
2021/10/03 06:05:42;;;;;;;9.80;8.87;;;14.20;69.70;;;13.32;74.36;97124.91;5026147;28;20500;-70
2021/10/03 06:08:10;;;;;;;11.07;8.80;;;14.30;69.80;;;13.48;73.10;97122.38;5024664;28;20477;-70
2021/10/03 06:10:37;;;;;;;9.67;8.67;;;14.40;69.50;;;13.65;72.17;97126.88;5025261;28;20473;-70
2021/10/03 06:13:04;;;;;;;9.30;8.30;;;14.50;69.10;;;13.43;73.22;97125.84;5025732;28;20504;-69
2021/10/03 06:15:33;;;;;;;12.27;9.50;;;14.50;69.00;;;13.44;72.97;97121.25;5021236;28;20478;-68
2021/10/03 06:18:00;;;;;;;9.50;8.60;;;14.50;68.90;;;13.59;72.05;97115.97;5026415;28;20466;-68
2021/10/03 06:20:27;;;;;;;10.80;9.70;;;14.60;68.80;;;13.52;72.66;97122.69;5025676;28;20478;-68
2021/10/03 06:22:54;;;;;;;10.10;9.00;;;14.60;68.70;;;13.53;72.60;97125.13;5023684;28;20473;-69
2021/10/03 06:25:21;;;;;;;9.03;8.23;;;14.50;68.60;;;13.64;71.71;97127.94;5020549;28;20482;-69
2021/10/03 06:27:48;;;;;;;9.50;8.57;;;14.60;68.10;;;13.73;71.51;97131.84;5022064;28;20938;-68
2021/10/03 06:30:15;;;;;;;10.53;9.10;;;14.60;68.10;;;13.80;71.07;97129.72;5023948;28;20446;-68
2021/10/03 06:32:43;;;;;;;8.40;7.60;;;14.70;67.70;;;13.77;71.24;97134.84;5023351;28;20925;-69
2021/10/03 06:35:10;;;;;;;11.50;7.73;;;14.80;67.50;;;13.83;70.87;97131.91;5023601;28;20488;-70
2021/10/03 06:37:37;;;;;;;9.90;8.90;;;14.80;67.30;;;13.88;70.41;97131.16;5021643;28;20482;-69
2021/10/03 06:40:06;;;;;;;9.90;8.90;;;14.90;67.10;;;13.91;70.38;97124.38;5025264;28;20458;-70
2021/10/03 06:42:33;;;;;;;9.43;8.53;;;14.90;66.80;;;13.99;70.49;97130.16;5022144;28;21026;-68
2021/10/03 06:45:00;;;;;;;9.60;8.40;;;14.90;67.10;;;13.96;69.47;97121.72;5022527;28;20471;-69
2021/10/03 06:47:27;;;;;;;9.53;8.53;;;15.00;66.40;;;14.09;69.32;97125.88;5023660;28;20470;-69
2021/10/03 06:49:56;;;;;;;9.80;8.80;;;15.10;66.50;;;14.22;68.69;97120.00;5022645;28;20484;-69
2021/10/03 06:52:22;;;;;;;9.10;8.30;;;15.10;66.50;;;14.29;68.65;97119.78;5021546;28;20467;-69
2021/10/03 06:54:50;;;;;;;9.50;8.53;;;15.20;66.00;;;14.20;68.22;97121.34;5021500;28;20525;-69
2021/10/03 06:57:16;;;;;;;9.83;8.93;;;15.20;65.40;;;14.17;68.63;97117.25;5024832;28;20462;-69
2021/10/03 06:59:43;;;;;;;9.27;8.33;;;15.20;65.50;;;14.42;67.20;97116.59;5023689;28;20451;-69
2021/10/03 07:02:19;;;;;;;11.73;8.67;;;15.30;65.00;;;14.55;67.42;97118.03;5021488;28;20459;-69
2021/10/03 07:04:46;;;;;;;9.60;8.70;;;15.50;65.00;;;14.59;67.10;97124.59;5018025;28;20478;-75
2021/10/03 07:07:14;;;;;;;10.33;8.10;;;15.50;64.60;;;14.73;66.91;97127.66;5020517;28;20461;-70
2021/10/03 07:09:41;;;;;;;10.00;9.00;;;15.60;64.70;;;14.91;65.98;97131.00;5026864;28;20471;-69
2021/10/03 07:12:08;;;;;;;8.97;8.10;;;15.80;64.10;;;15.05;65.28;97131.34;5026658;28;20466;-69
2021/10/03 07:14:35;;;;;;;9.00;8.07;;;15.90;63.80;;;15.15;65.05;97125.13;5024060;28;20602;-68
2021/10/03 07:17:02;;;;;;;10.00;8.87;;;16.10;63.40;;;15.24;63.98;97118.09;5020640;28;20508;-73
2021/10/03 07:19:29;;;;;;;9.03;8.13;;;16.20;62.70;;;15.58;62.97;97128.50;5029052;28;20482;-73
2021/10/03 07:21:56;;;;;;;8.43;7.70;;;16.40;62.20;;;15.68;62.43;97127.69;5031916;28;20454;-74
2021/10/03 07:24:28;;;;;;;8.90;8.00;;;16.60;61.80;;;15.89;61.40;97125.00;5023500;28;20478;-71
2021/10/03 07:26:55;;;;;;;8.87;7.60;;;16.80;61.10;;;15.97;61.10;97131.81;5026524;28;20459;-72
2021/10/03 07:29:22;;;;;;;8.27;7.50;;;16.90;60.70;;;16.01;61.38;97135.66;5025737;28;20501;-73
2021/10/03 07:31:49;;;;;;;8.53;7.73;;;16.90;60.90;;;16.21;60.43;97136.72;5024277;28;20495;-75
2021/10/03 07:34:16;;;;;;;8.90;8.00;;;17.10;60.20;;;16.59;59.16;97129.03;5023286;28;20490;-71
2021/10/03 07:36:43;;;;;;;7.03;6.50;;;17.30;60.10;;;16.63;58.82;97129.28;5028598;28;20470;-73
2021/10/03 07:39:11;;;;;;;8.73;7.93;;;17.50;59.60;;;16.64;58.98;97133.66;5024952;28;20454;-69
2021/10/03 07:41:39;;;;;;;8.80;8.03;;;17.50;59.50;;;16.50;59.22;97136.16;5021309;28;22164;-69
2021/10/03 07:44:06;;;;;;;8.60;7.80;;;17.40;59.40;;;16.36;59.25;97130.44;5022048;28;21081;-69
2021/10/03 07:46:33;;;;;;;9.30;8.07;;;17.40;59.20;;;16.56;58.84;97135.03;5027867;28;20470;-69
2021/10/03 07:49:00;;;;;;;8.07;7.23;;;17.40;59.10;;;16.66;58.40;97128.72;5026242;28;20486;-69
2021/10/03 07:51:27;;;;;;;8.60;7.50;;;17.60;59.10;;;16.86;57.51;97125.13;5043552;28;20921;-68
2021/10/03 07:53:54;;;;;;;7.83;6.93;;;17.70;58.60;;;16.73;58.01;97133.91;5022629;28;20483;-69
2021/10/03 07:56:20;;;;;;;7.30;6.63;;;17.60;58.50;;;16.56;57.91;97132.31;5027941;28;21180;-76
2021/10/03 07:58:49;;;;;;;10.83;6.73;;;17.60;58.10;;;16.61;59.13;97126.84;5022304;28;20549;-77
2021/10/03 08:01:16;;;;;;;8.00;7.30;;;17.50;58.90;;;16.91;57.46;97146.94;5024357;28;20457;-76
2021/10/03 08:03:43;;;;;;;7.13;6.37;;;17.70;58.30;;;16.87;56.99;97151.31;5022928;28;20979;-70
2021/10/03 08:06:10;;;;;;;10.73;6.60;;;17.80;57.90;;;16.97;56.91;97143.09;5022873;28;20596;-81
2021/10/03 08:08:37;;;;;;;6.50;5.90;;;17.80;57.90;;;16.89;56.82;97149.13;5024175;28;20472;-82
2021/10/03 08:11:04;;;;;;;6.77;6.17;;;17.90;57.50;;;16.86;56.93;97160.59;5010298;28;20561;-81
2021/10/03 08:13:31;;;;;;;9.17;7.07;;;17.80;57.50;;;17.05;57.79;97149.09;5026356;28;20477;-80
2021/10/03 08:16:00;;;;;;;8.03;7.23;;;17.90;58.20;;;17.11;56.11;97135.16;5026731;28;20582;-81
2021/10/03 08:18:27;;;;;;;6.87;6.17;;;18.00;57.30;;;16.83;56.81;97136.59;5028680;28;20513;-80
2021/10/03 08:20:54;;;;;;;6.90;6.23;;;17.70;57.20;;;16.75;56.42;97137.16;5024430;28;20474;-80
2021/10/03 08:23:21;;;;;;;6.90;6.30;;;17.70;57.00;;;17.11;56.35;97134.34;5025322;28;20460;-76
2021/10/03 08:25:49;;;;;;;6.60;6.10;;;17.80;57.20;;;17.48;55.28;97138.50;5024865;28;20485;-77
2021/10/03 08:28:16;;;;;;;7.50;6.80;;;18.10;57.20;;;17.59;55.96;97143.94;5027615;28;20466;-75
2021/10/03 08:30:43;;;;;;;7.27;6.63;;;18.40;57.30;;;18.08;53.69;97134.06;5028685;28;20489;-78
2021/10/03 08:33:12;;;;;;;7.63;6.50;;;18.70;56.70;;;18.27;52.92;97142.34;5026232;28;20478;-76
2021/10/03 08:35:39;;;;;;;7.43;6.73;;;19.00;56.20;;;18.24;53.35;97145.66;5024808;28;20846;-76
2021/10/03 08:38:06;;;;;;;6.80;6.20;;;19.00;56.10;;;18.26;53.06;97147.00;5027568;28;20520;-75
2021/10/03 08:40:34;;;;;;;6.40;5.90;;;19.00;56.00;;;18.12;52.58;97141.41;5022110;28;20486;-78
2021/10/03 08:43:01;;;;;;;6.90;6.30;;;19.00;55.50;;;18.26;52.34;97140.72;5029398;28;20486;-77
2021/10/03 08:45:28;;;;;;;6.47;5.87;;;19.10;55.40;;;18.16;52.65;97146.28;5020737;28;21647;-76
2021/10/03 08:47:55;;;;;;;7.00;6.40;;;19.00;55.40;;;18.36;52.60;97135.16;5025252;28;21968;-76
2021/10/03 08:50:24;;;;;;;6.60;6.07;;;19.10;55.60;;;18.28;52.69;97141.25;5022332;28;20501;-80
2021/10/03 08:52:51;;;;;;;7.00;6.40;;;19.20;55.50;;;18.63;51.87;97142.00;5026341;28;20481;-81
2021/10/03 08:55:18;;;;;;;6.90;6.30;;;19.40;55.30;;;18.59;51.85;97138.22;5040814;28;20564;-81
2021/10/03 08:57:45;;;;;;;7.53;6.13;;;19.40;55.10;;;18.81;51.65;97134.16;5023372;28;20485;-81
2021/10/03 09:00:17;;;;;;;6.40;5.80;;;19.60;55.20;;;19.06;51.05;97132.28;5026951;28;20487;-81
2021/10/03 09:03:04;;;;;;;7.10;6.33;;;19.80;55.30;;;19.39;50.58;97135.13;5026891;28;20446;-81
2021/10/03 09:05:35;;;;;;;6.10;5.60;;;20.00;54.90;;;19.33;49.62;97136.28;5023137;28;20466;-81
2021/10/03 09:08:09;;;;;;;5.87;5.33;;;20.10;54.40;;;19.51;48.58;97135.50;5022187;28;20538;-83
2021/10/03 09:11:01;;;;;;;5.97;5.47;;;20.30;53.90;;;19.32;48.93;97120.97;5030596;28;20458;-80
2021/10/03 09:13:48;;;;;;;5.77;5.27;;;20.20;53.60;;;19.25;49.21;97133.09;5009162;28;20524;-79
2021/10/03 09:16:21;;;;;;;5.20;4.80;;;20.10;53.70;;;19.42;48.74;97137.28;5023640;28;20462;-80
2021/10/03 09:18:51;;;;;;;5.50;5.10;;;20.10;53.70;;;19.73;48.07;97134.09;5027322;28;20560;-79
2021/10/03 09:21:38;;;;;;;6.00;5.40;;;20.40;53.50;;;19.85;48.10;97130.09;5026239;28;20466;-80
2021/10/03 09:24:09;;;;;;;6.00;5.40;;;20.70;53.50;;;19.77;48.17;97135.13;5026787;28;20528;-78
2021/10/03 09:26:38;;;;;;;7.67;5.43;;;20.60;53.20;;;19.88;47.97;97127.56;5022868;28;20443;-79
2021/10/03 09:29:22;;;;;;;6.10;5.50;;;20.70;53.30;;;19.84;47.96;97136.69;5028714;28;20461;-78
2021/10/03 09:32:11;;;;;;;7.37;5.27;;;20.60;53.30;;;19.94;47.71;97111.88;5022519;28;20458;-79
2021/10/03 09:34:39;;;;;;;8.40;5.70;;;20.80;53.30;;;20.07;47.71;97124.81;5027215;28;20469;-78
2021/10/03 09:37:20;;;;;;;7.03;6.00;;;20.80;53.20;;;19.79;47.63;97130.19;5022704;28;20550;-80
2021/10/03 09:39:50;;;;;;;7.00;5.17;;;20.70;53.00;;;19.71;48.32;97128.09;5020454;28;20573;-80
2021/10/03 09:42:19;;;;;;;6.33;5.37;;;20.60;53.10;;;19.81;47.85;97110.69;5030650;28;20495;-80
2021/10/03 09:45:13;;;;;;;7.40;5.33;;;20.70;53.20;;;19.63;48.48;97132.31;5021711;28;20574;-76
2021/10/03 09:47:42;;;;;;;5.80;5.27;;;20.50;52.90;;;19.39;49.18;97140.59;5007503;28;20501;-78
2021/10/03 09:50:12;;;;;;;6.27;5.67;;;20.20;53.20;;;19.11;49.75;97132.19;5024945;28;20521;-79
2021/10/03 09:52:43;;;;;;;5.57;5.10;;;20.00;53.40;;;19.37;49.29;97140.88;5019691;28;20556;-79
2021/10/03 09:55:14;;;;;;;6.43;5.83;;;20.10;53.50;;;19.13;49.79;97132.72;5026094;28;21009;-78
2021/10/03 09:57:42;;;;;;;6.80;6.10;;;20.00;53.50;;;19.35;49.71;97136.84;5017823;28;20459;-78
2021/10/03 10:00:12;;;;;;;6.77;6.03;;;20.10;53.70;;;19.38;50.06;97130.75;5019082;28;20450;-79
2021/10/03 10:02:39;;;;;;;6.17;5.57;;;20.00;54.00;;;19.56;49.69;97128.31;5024238;28;20477;-77
2021/10/03 10:05:08;;;;;;;7.40;6.00;;;20.20;53.90;;;19.73;49.43;97125.06;5025022;28;20486;-77
2021/10/03 10:07:35;;;;;;;5.87;5.37;;;20.40;53.90;;;19.90;49.01;97130.81;5022538;28;20528;-78
2021/10/03 10:10:05;;;;;;;7.67;6.03;;;20.60;53.70;;;20.00;49.12;97129.88;5024056;28;20991;-77
2021/10/03 10:12:35;;;;;;;6.17;5.67;;;20.70;53.90;;;19.92;49.04;97133.28;5025590;28;20485;-79
2021/10/03 10:15:09;;;;;;;6.73;6.20;;;20.70;53.70;;;19.86;49.24;97138.00;5023993;28;20498;-78
2021/10/03 10:17:39;;;;;;;6.50;5.97;;;20.70;53.70;;;19.88;49.61;97127.56;5021945;28;20555;-79
2021/10/03 10:20:36;;;;;;;6.37;5.87;;;20.60;54.00;;;19.87;49.50;97119.63;5024726;28;20474;-80
2021/10/03 10:23:08;;;;;;;6.90;6.30;;;20.70;53.90;;;19.82;50.28;97118.63;5022699;28;20482;-75